Time,TemperatureF,DewpointF,PressureIn,WindDirection,WindDirectionDegrees,WindSpeedMPH,WindSpeedGustMPH,Humidity,HourlyPrecipIn,Conditions,Clouds,dailyrainin,SoftwareType,DateUTC
2013-05-25 00:04:00,67.3,64.9,29.06,North,-999,-999.0,-999.0,92,0.00,,,0.00,WSDL version 420,2013-05-25 05:04:00,
2013-05-25 00:09:00,67.3,65.1,29.06,North,-999,-999.0,-999.0,93,0.00,,,0.00,WSDL version 420,2013-05-25 05:09:00,
2013-05-25 00:14:00,67.3,65.3,29.09,North,-999,-999.0,-999.0,93,0.00,,,0.00,WSDL version 420,2013-05-25 05:14:00,
2013-05-25 00:19:00,67.3,65.3,29.09,North,-999,-999.0,-999.0,93,0.00,,,0.00,WSDL version 420,2013-05-25 05:19:00,
2013-05-25 00:24:00,67.3,65.3,29.09,North,-999,-999.0,-999.0,93,0.00,,,0.00,WSDL version 420,2013-05-25 05:24:00,
2013-05-25 00:29:00,67.3,65.0,29.09,North,-999,-999.0,-999.0,92,0.00,,,0.00,WSDL version 420,2013-05-25 05:29:00,
2013-05-25 00:34:00,67.3,64.9,29.09,North,-999,-999.0,-999.0,92,0.00,,,0.00,WSDL version 420,2013-05-25 05:34:00,
2013-05-25 00:39:00,67.2,64.9,29.09,North,-999,-999.0,-999.0,92,0.00,,,0.00,WSDL version 420,2013-05-25 05:39:00,
2013-05-25 00:44:00,67.1,64.8,29.09,North,-999,-999.0,-999.0,92,0.00,,,0.00,WSDL version 420,2013-05-25 05:44:00,
2013-05-25 00:49:00,67.1,64.8,29.09,North,-999,-999.0,-999.0,92,0.00,,,0.00,WSDL version 420,2013-05-25 05:49:00,
2013-05-25 00:54:00,67.1,64.8,29.09,North,-999,-999.0,-999.0,92,0.00,,,0.00,WSDL version 420,2013-05-25 05:54:00,
2013-05-25 00:59:00,67.3,65.2,29.09,North,-999,-999.0,-999.0,93,0.00,,,0.00,WSDL version 420,2013-05-25 05:59:00,
2013-05-25 01:04:00,67.3,65.3,29.09,North,-999,-999.0,-999.0,93,0.00,,,0.00,WSDL version 420,2013-05-25 06:04:00,
2013-05-25 01:09:00,67.3,65.3,29.09,North,-999,-999.0,-999.0,93,0.00,,,0.00,WSDL version 420,2013-05-25 06:09:00,
2013-05-25 01:14:00,67.3,65.3,29.09,North,-999,-999.0,-999.0,93,0.00,,,0.00,WSDL version 420,2013-05-25 06:14:00,
2013-05-25 01:19:00,67.3,65.3,29.09,North,-999,-999.0,-999.0,93,0.00,,,0.00,WSDL version 420,2013-05-25 06:19:00,
2013-05-25 01:24:00,67.3,65.3,29.09,North,-999,-999.0,-999.0,93,0.00,,,0.00,WSDL version 420,2013-05-25 06:24:00,
2013-05-25 01:29:00,67.3,65.3,29.06,North,-999,-999.0,-999.0,93,0.00,,,0.00,WSDL version 420,2013-05-25 06:29:00,
2013-05-25 01:34:00,67.3,65.3,29.06,North,-999,-999.0,-999.0,93,0.00,,,0.00,WSDL version 420,2013-05-25 06:34:00,
2013-05-25 01:39:00,67.3,65.3,29.06,North,-999,-999.0,-999.0,93,0.00,,,0.00,WSDL version 420,2013-05-25 06:39:00,
2013-05-25 01:44:00,67.3,65.3,29.06,North,-999,-999.0,-999.0,93,0.00,,,0.00,WSDL version 420,2013-05-25 06:44:00,
2013-05-25 01:49:00,67.5,65.5,29.06,North,-999,-999.0,-999.0,93,0.00,,,0.00,WSDL version 420,2013-05-25 06:49:00,
2013-05-25 01:54:00,67.5,65.5,29.06,North,-999,-999.0,-999.0,93,0.00,,,0.00,WSDL version 420,2013-05-25 06:54:00,
2013-05-25 01:59:00,67.5,65.5,29.06,North,-999,-999.0,-999.0,93,0.00,,,0.00,WSDL version 420,2013-05-25 06:59:00,
2013-05-25 02:04:00,67.5,65.5,29.06,North,-999,-999.0,-999.0,93,0.00,,,0.00,WSDL version 420,2013-05-25 07:04:00,
2013-05-25 02:09:00,67.5,65.5,29.06,North,-999,-999.0,-999.0,93,0.00,,,0.00,WSDL version 420,2013-05-25 07:09:00,
2013-05-25 02:14:00,67.5,65.5,29.06,North,-999,-999.0,-999.0,93,0.00,,,0.00,WSDL version 420,2013-05-25 07:14:00,
2013-05-25 02:19:00,67.6,65.8,29.06,North,-999,-999.0,-999.0,94,0.00,,,0.00,WSDL version 420,2013-05-25 07:19:00,
2013-05-25 02:24:00,67.6,66.0,29.06,North,-999,-999.0,-999.0,94,0.00,,,0.00,WSDL version 420,2013-05-25 07:24:00,
2013-05-25 02:29:00,67.6,66.0,29.06,North,-999,-999.0,-999.0,94,0.00,,,0.00,WSDL version 420,2013-05-25 07:29:00,
2013-05-25 02:34:00,67.6,66.0,29.06,North,-999,-999.0,-999.0,94,0.00,,,0.00,WSDL version 420,2013-05-25 07:34:00,
2013-05-25 02:39:00,67.8,66.1,29.06,North,-999,-999.0,-999.0,94,0.00,,,0.00,WSDL version 420,2013-05-25 07:39:00,
2013-05-25 02:44:00,67.8,66.2,29.06,North,-999,-999.0,-999.0,94,0.00,,,0.00,WSDL version 420,2013-05-25 07:44:00,
2013-05-25 02:49:00,67.8,66.2,29.06,North,-999,-999.0,-999.0,94,0.00,,,0.00,WSDL version 420,2013-05-25 07:49:00,
2013-05-25 02:54:00,67.8,66.2,29.06,North,-999,-999.0,-999.0,94,0.00,,,0.00,WSDL version 420,2013-05-25 07:54:00,
2013-05-25 02:59:00,67.8,66.2,29.06,North,-999,-999.0,-999.0,94,0.00,,,0.00,WSDL version 420,2013-05-25 07:59:00,
2013-05-25 03:04:00,67.8,66.2,29.06,North,-999,-999.0,-999.0,94,0.00,,,0.00,WSDL version 420,2013-05-25 08:04:00,
2013-05-25 03:09:00,67.8,66.2,29.06,North,-999,-999.0,-999.0,94,0.00,,,0.00,WSDL version 420,2013-05-25 08:09:00,
2013-05-25 03:14:00,67.8,66.2,29.06,North,-999,-999.0,-999.0,94,0.00,,,0.00,WSDL version 420,2013-05-25 08:14:00,
2013-05-25 03:19:00,67.8,66.2,29.06,North,-999,-999.0,-999.0,94,0.00,,,0.00,WSDL version 420,2013-05-25 08:19:00,
2013-05-25 03:24:00,67.9,66.2,29.06,North,-999,-999.0,-999.0,94,0.00,,,0.00,WSDL version 420,2013-05-25 08:24:00,
2013-05-25 03:29:00,68.0,66.3,29.06,North,-999,-999.0,-999.0,94,0.00,,,0.00,WSDL version 420,2013-05-25 08:29:00,
2013-05-25 03:34:00,68.0,66.3,29.06,North,-999,-999.0,-999.0,94,0.00,,,0.00,WSDL version 420,2013-05-25 08:34:00,
2013-05-25 03:39:00,68.0,66.3,29.06,North,-999,-999.0,-999.0,94,0.00,,,0.00,WSDL version 420,2013-05-25 08:39:00,
2013-05-25 03:44:00,68.0,66.4,29.06,North,-999,-999.0,-999.0,94,0.00,,,0.00,WSDL version 420,2013-05-25 08:44:00,
2013-05-25 03:49:00,68.2,66.5,29.06,North,-999,-999.0,-999.0,94,0.00,,,0.00,WSDL version 420,2013-05-25 08:49:00,
2013-05-25 03:54:00,68.2,66.5,29.06,North,-999,-999.0,-999.0,94,0.00,,,0.00,WSDL version 420,2013-05-25 08:54:00,
2013-05-25 03:59:00,68.2,66.5,29.06,North,-999,-999.0,-999.0,94,0.00,,,0.00,WSDL version 420,2013-05-25 08:59:00,
2013-05-25 04:04:00,68.2,66.5,29.06,North,-999,-999.0,-999.0,94,0.00,,,0.00,WSDL version 420,2013-05-25 09:04:00,
2013-05-25 04:09:00,68.2,66.5,29.06,North,-999,-999.0,-999.0,93,0.00,,,0.00,WSDL version 420,2013-05-25 09:09:00,
2013-05-25 04:14:00,68.2,66.2,29.06,North,-999,-999.0,-999.0,93,0.00,,,0.00,WSDL version 420,2013-05-25 09:14:00,
2013-05-25 04:19:00,68.2,66.3,29.06,North,-999,-999.0,-999.0,94,0.00,,,0.00,WSDL version 420,2013-05-25 09:19:00,
2013-05-25 04:24:00,68.2,66.5,29.06,North,-999,-999.0,-999.0,94,0.00,,,0.00,WSDL version 420,2013-05-25 09:24:00,
2013-05-25 04:29:00,68.2,66.5,29.06,North,-999,-999.0,-999.0,94,0.00,,,0.00,WSDL version 420,2013-05-25 09:29:00,
2013-05-25 04:34:00,68.2,66.5,29.06,North,-999,-999.0,-999.0,94,0.00,,,0.00,WSDL version 420,2013-05-25 09:34:00,
2013-05-25 04:39:00,68.2,66.5,29.06,North,-999,-999.0,-999.0,94,0.00,,,0.00,WSDL version 420,2013-05-25 09:39:00,
2013-05-25 04:44:00,68.3,66.7,29.03,North,-999,-999.0,-999.0,94,0.00,,,0.00,WSDL version 420,2013-05-25 09:44:00,
2013-05-25 04:49:00,68.4,66.7,29.03,North,-999,-999.0,-999.0,94,0.00,,,0.00,WSDL version 420,2013-05-25 09:49:00,
2013-05-25 04:54:00,68.4,66.7,29.03,North,-999,-999.0,-999.0,94,0.00,,,0.00,WSDL version 420,2013-05-25 09:54:00,
2013-05-25 04:59:00,68.4,66.7,29.03,North,-999,-999.0,-999.0,94,0.00,,,0.00,WSDL version 420,2013-05-25 09:59:00,
2013-05-25 05:04:00,68.4,66.7,29.03,North,-999,-999.0,-999.0,94,0.00,,,0.00,WSDL version 420,2013-05-25 10:04:00,
2013-05-25 05:09:00,68.5,66.8,29.03,North,-999,-999.0,-999.0,94,0.00,,,0.00,WSDL version 420,2013-05-25 10:09:00,
2013-05-25 05:14:00,68.5,66.9,29.03,North,-999,-999.0,-999.0,94,0.00,,,0.00,WSDL version 420,2013-05-25 10:14:00,
2013-05-25 05:19:00,68.5,66.9,29.03,North,-999,-999.0,-999.0,94,0.00,,,0.00,WSDL version 420,2013-05-25 10:19:00,
2013-05-25 05:24:00,68.6,66.9,29.03,North,-999,-999.0,-999.0,94,0.00,,,0.00,WSDL version 420,2013-05-25 10:24:00,
2013-05-25 05:29:00,68.7,67.0,29.06,North,-999,-999.0,-999.0,94,0.00,,,0.00,WSDL version 420,2013-05-25 10:29:00,
2013-05-25 05:34:00,68.7,67.1,29.06,North,-999,-999.0,-999.0,94,0.00,,,0.00,WSDL version 420,2013-05-25 10:34:00,
2013-05-25 05:39:00,68.7,67.1,29.06,North,-999,-999.0,-999.0,94,0.00,,,0.00,WSDL version 420,2013-05-25 10:39:00,
2013-05-25 05:44:00,68.8,67.2,29.03,North,-999,-999.0,-999.0,94,0.00,,,0.00,WSDL version 420,2013-05-25 10:44:00,
2013-05-25 05:49:00,68.9,67.5,29.03,North,-999,-999.0,-999.0,96,0.00,,,0.00,WSDL version 420,2013-05-25 10:49:00,
2013-05-25 05:54:00,68.9,67.6,29.03,North,-999,-999.0,-999.0,96,0.00,,,0.00,WSDL version 420,2013-05-25 10:54:00,
2013-05-25 05:59:00,68.9,67.6,29.03,North,-999,-999.0,-999.0,96,0.00,,,0.00,WSDL version 420,2013-05-25 10:59:00,
2013-05-25 06:04:00,68.9,67.6,29.03,North,-999,-999.0,-999.0,96,0.00,,,0.00,WSDL version 420,2013-05-25 11:04:00,
2013-05-25 06:09:00,68.9,67.6,29.03,North,-999,-999.0,-999.0,96,0.00,,,0.00,WSDL version 420,2013-05-25 11:09:00,
2013-05-25 06:14:00,68.9,67.6,29.03,North,-999,-999.0,-999.0,96,0.00,,,0.00,WSDL version 420,2013-05-25 11:14:00,
2013-05-25 06:19:00,69.1,67.7,29.03,North,-999,-999.0,-999.0,96,0.00,,,0.00,WSDL version 420,2013-05-25 11:19:00,
2013-05-25 06:24:00,69.1,67.8,29.03,North,-999,-999.0,-999.0,96,0.00,,,0.00,WSDL version 420,2013-05-25 11:24:00,
2013-05-25 06:29:00,69.1,67.8,29.03,North,-999,-999.0,-999.0,96,0.00,,,0.00,WSDL version 420,2013-05-25 11:29:00,
2013-05-25 06:34:00,69.1,67.8,29.03,North,-999,-999.0,-999.0,96,0.00,,,0.00,WSDL version 420,2013-05-25 11:34:00,
2013-05-25 06:39:00,69.1,67.8,29.03,North,-999,-999.0,-999.0,96,0.00,,,0.00,WSDL version 420,2013-05-25 11:39:00,
2013-05-25 06:44:00,69.1,67.8,29.06,North,-999,-999.0,-999.0,96,0.00,,,0.00,WSDL version 420,2013-05-25 11:44:00,
2013-05-25 06:49:00,69.2,67.9,29.06,North,-999,-999.0,-999.0,96,0.00,,,0.00,WSDL version 420,2013-05-25 11:49:00,
2013-05-25 06:54:00,69.3,68.0,29.06,North,-999,-999.0,-999.0,97,0.00,,,0.00,WSDL version 420,2013-05-25 11:54:00,
2013-05-25 06:59:00,69.3,68.3,29.06,North,-999,-999.0,-999.0,97,0.00,,,0.00,WSDL version 420,2013-05-25 11:59:00,
2013-05-25 07:04:00,69.4,68.4,29.06,North,-999,-999.0,-999.0,97,0.00,,,0.00,WSDL version 420,2013-05-25 12:04:00,
2013-05-25 07:09:00,69.4,68.5,29.06,North,-999,-999.0,-999.0,97,0.00,,,0.00,WSDL version 420,2013-05-25 12:09:00,
2013-05-25 07:14:00,69.4,68.5,29.06,North,-999,-999.0,-999.0,97,0.00,,,0.00,WSDL version 420,2013-05-25 12:14:00,
2013-05-25 07:19:00,69.5,68.5,29.06,North,-999,-999.0,-999.0,97,0.00,,,0.00,WSDL version 420,2013-05-25 12:19:00,
2013-05-25 07:24:00,69.6,68.6,29.06,North,-999,-999.0,-999.0,97,0.00,,,0.00,WSDL version 420,2013-05-25 12:24:00,
2013-05-25 07:29:00,69.6,68.6,29.06,North,-999,-999.0,-999.0,97,0.00,,,0.00,WSDL version 420,2013-05-25 12:29:00,
2013-05-25 07:34:00,69.6,68.6,29.06,North,-999,-999.0,-999.0,97,0.00,,,0.00,WSDL version 420,2013-05-25 12:34:00,
2013-05-25 07:39:00,69.6,68.6,29.06,North,-999,-999.0,-999.0,97,0.05,,,0.05,WSDL version 420,2013-05-25 12:39:00,
2013-05-25 07:44:00,69.8,68.5,29.06,North,-999,-999.0,-999.0,96,0.05,,,0.05,WSDL version 420,2013-05-25 12:44:00,
2013-05-25 07:49:00,69.8,68.6,29.06,North,-999,-999.0,-999.0,97,0.05,,,0.05,WSDL version 420,2013-05-25 12:49:00,
2013-05-25 07:54:00,69.8,68.8,29.06,North,-999,-999.0,-999.0,96,0.05,,,0.05,WSDL version 420,2013-05-25 12:54:00,
2013-05-25 07:59:00,69.8,68.5,29.09,North,-999,-999.0,-999.0,96,0.10,,,0.10,WSDL version 420,2013-05-25 12:59:00,
2013-05-25 08:04:00,69.8,68.5,29.09,North,-999,-999.0,-999.0,96,0.10,,,0.10,WSDL version 420,2013-05-25 13:04:00,
2013-05-25 08:09:00,69.7,68.5,29.09,North,-999,-999.0,-999.0,96,0.10,,,0.10,WSDL version 420,2013-05-25 13:09:00,
2013-05-25 08:14:00,69.7,68.6,29.09,North,-999,-999.0,-999.0,97,0.10,,,0.10,WSDL version 420,2013-05-25 13:14:00,
2013-05-25 08:19:00,69.6,68.6,29.09,North,-999,-999.0,-999.0,97,0.10,,,0.10,WSDL version 420,2013-05-25 13:19:00,
2013-05-25 08:24:00,69.6,68.6,29.09,North,-999,-999.0,-999.0,97,0.16,,,0.16,WSDL version 420,2013-05-25 13:24:00,
2013-05-25 08:29:00,69.7,68.6,29.06,North,-999,-999.0,-999.0,97,0.16,,,0.16,WSDL version 420,2013-05-25 13:29:00,
2013-05-25 08:34:00,69.8,68.8,29.06,North,-999,-999.0,-999.0,97,0.16,,,0.16,WSDL version 420,2013-05-25 13:34:00,
2013-05-25 08:39:00,69.8,68.8,29.06,North,-999,-999.0,-999.0,97,0.10,,,0.16,WSDL version 420,2013-05-25 13:39:00,
2013-05-25 08:44:00,69.8,68.8,29.09,North,-999,-999.0,-999.0,97,0.22,,,0.28,WSDL version 420,2013-05-25 13:44:00,
2013-05-25 08:49:00,69.8,68.8,29.09,North,-999,-999.0,-999.0,97,0.43,,,0.49,WSDL version 420,2013-05-25 13:49:00,
2013-05-25 08:54:00,69.8,68.8,29.09,North,-999,-999.0,-999.0,97,0.59,,,0.64,WSDL version 420,2013-05-25 13:54:00,
2013-05-25 08:59:00,70.0,69.0,29.06,North,-999,-999.0,-999.0,97,0.66,,,0.76,WSDL version 420,2013-05-25 13:59:00,
2013-05-25 09:04:00,69.9,68.9,29.06,North,-999,-999.0,-999.0,97,0.66,,,0.76,WSDL version 420,2013-05-25 14:04:00,
2013-05-25 09:09:00,69.9,69.0,29.06,North,-999,-999.0,-999.0,97,0.71,,,0.81,WSDL version 420,2013-05-25 14:09:00,
2013-05-25 09:14:00,70.0,69.0,29.06,North,-999,-999.0,-999.0,97,0.76,,,0.87,WSDL version 420,2013-05-25 14:14:00,
2013-05-25 09:19:00,70.1,69.1,29.06,North,-999,-999.0,-999.0,97,0.81,,,0.92,WSDL version 420,2013-05-25 14:19:00,
2013-05-25 09:24:00,70.2,69.2,29.06,North,-999,-999.0,-999.0,97,0.76,,,0.92,WSDL version 420,2013-05-25 14:24:00,
2013-05-25 09:29:00,70.2,69.2,29.09,North,-999,-999.0,-999.0,97,0.83,,,0.98,WSDL version 420,2013-05-25 14:29:00,
2013-05-25 09:34:00,70.3,69.3,29.09,North,-999,-999.0,-999.0,97,0.88,,,1.04,WSDL version 420,2013-05-25 14:34:00,
2013-05-25 09:39:00,70.3,69.3,29.09,North,-999,-999.0,-999.0,97,0.93,,,1.09,WSDL version 420,2013-05-25 14:39:00,
2013-05-25 09:44:00,70.4,69.4,29.09,North,-999,-999.0,-999.0,97,0.87,,,1.14,WSDL version 420,2013-05-25 14:44:00,
2013-05-25 09:49:00,70.5,69.6,29.09,North,-999,-999.0,-999.0,98,0.71,,,1.19,WSDL version 420,2013-05-25 14:49:00,
2013-05-25 09:54:00,70.5,69.9,29.09,North,-999,-999.0,-999.0,98,0.77,,,1.42,WSDL version 420,2013-05-25 14:54:00,
2013-05-25 09:59:00,70.5,69.6,29.09,North,-999,-999.0,-999.0,97,0.87,,,1.63,WSDL version 420,2013-05-25 14:59:00,
2013-05-25 10:04:00,70.5,69.5,29.09,North,-999,-999.0,-999.0,97,0.97,,,1.73,WSDL version 420,2013-05-25 15:04:00,
2013-05-25 10:09:00,70.5,69.5,29.09,North,-999,-999.0,-999.0,97,0.92,,,1.73,WSDL version 420,2013-05-25 15:09:00,
2013-05-25 10:14:00,70.5,69.5,29.09,North,-999,-999.0,-999.0,97,0.93,,,1.80,WSDL version 420,2013-05-25 15:14:00,
2013-05-25 10:19:00,70.6,69.6,29.09,North,-999,-999.0,-999.0,97,0.88,,,1.80,WSDL version 420,2013-05-25 15:19:00,
2013-05-25 10:24:00,70.7,69.8,29.09,North,-999,-999.0,-999.0,98,0.88,,,1.80,WSDL version 420,2013-05-25 15:24:00,
2013-05-25 10:29:00,70.9,70.2,29.09,North,-999,-999.0,-999.0,98,0.81,,,1.80,WSDL version 420,2013-05-25 15:29:00,
2013-05-25 10:34:00,71.0,70.3,29.09,North,-999,-999.0,-999.0,98,0.76,,,1.80,WSDL version 420,2013-05-25 15:34:00,
2013-05-25 10:39:00,71.1,70.4,29.09,North,-999,-999.0,-999.0,98,0.71,,,1.80,WSDL version 420,2013-05-25 15:39:00,
2013-05-25 10:44:00,71.2,70.6,29.09,North,-999,-999.0,-999.0,98,0.66,,,1.80,WSDL version 420,2013-05-25 15:44:00,
2013-05-25 10:49:00,71.4,70.7,29.09,North,-999,-999.0,-999.0,98,0.60,,,1.80,WSDL version 420,2013-05-25 15:49:00,
2013-05-25 10:54:00,71.5,70.8,29.09,North,-999,-999.0,-999.0,98,0.38,,,1.80,WSDL version 420,2013-05-25 15:54:00,
2013-05-25 10:59:00,71.6,70.9,29.09,North,-999,-999.0,-999.0,98,0.17,,,1.80,WSDL version 420,2013-05-25 15:59:00,
2013-05-25 11:04:00,71.8,71.1,29.09,North,-999,-999.0,-999.0,98,0.07,,,1.80,WSDL version 420,2013-05-25 16:04:00,
2013-05-25 11:09:00,71.9,71.3,29.09,North,-999,-999.0,-999.0,98,0.07,,,1.80,WSDL version 420,2013-05-25 16:09:00,
2013-05-25 11:14:00,72.0,71.3,29.09,North,-999,-999.0,-999.0,98,0.00,,,1.80,WSDL version 420,2013-05-25 16:14:00,
2013-05-25 11:19:00,72.2,71.5,29.09,North,-999,-999.0,-999.0,98,0.00,,,1.80,WSDL version 420,2013-05-25 16:19:00,
2013-05-25 11:24:00,72.4,71.7,29.09,North,-999,-999.0,-999.0,98,0.00,,,1.80,WSDL version 420,2013-05-25 16:24:00,
2013-05-25 11:29:00,72.4,71.7,29.09,North,-999,-999.0,-999.0,97,0.00,,,1.80,WSDL version 420,2013-05-25 16:29:00,
2013-05-25 11:34:00,72.5,71.5,29.09,North,-999,-999.0,-999.0,97,0.00,,,1.80,WSDL version 420,2013-05-25 16:34:00,
2013-05-25 11:39:00,72.6,71.6,29.09,North,-999,-999.0,-999.0,97,0.00,,,1.80,WSDL version 420,2013-05-25 16:39:00,
2013-05-25 11:44:00,72.7,71.7,29.09,North,-999,-999.0,-999.0,97,0.00,,,1.80,WSDL version 420,2013-05-25 16:44:00,
2013-05-25 11:49:00,72.7,71.6,29.09,North,-999,-999.0,-999.0,97,0.00,,,1.80,WSDL version 420,2013-05-25 16:49:00,
2013-05-25 11:54:00,72.7,71.7,29.09,North,-999,-999.0,-999.0,97,0.00,,,1.80,WSDL version 420,2013-05-25 16:54:00,
2013-05-25 11:59:00,72.8,71.8,29.09,North,-999,-999.0,-999.0,97,0.00,,,1.80,WSDL version 420,2013-05-25 16:59:00,
2013-05-25 12:04:00,72.9,71.9,29.09,North,-999,-999.0,-999.0,97,0.00,,,1.80,WSDL version 420,2013-05-25 17:04:00,
2013-05-25 12:09:00,73.0,72.0,29.09,North,-999,-999.0,-999.0,97,0.00,,,1.80,WSDL version 420,2013-05-25 17:09:00,
2013-05-25 12:14:00,73.1,72.1,29.09,North,-999,-999.0,-999.0,97,0.00,,,1.80,WSDL version 420,2013-05-25 17:14:00,
2013-05-25 12:19:00,73.3,72.2,29.09,North,-999,-999.0,-999.0,96,0.00,,,1.80,WSDL version 420,2013-05-25 17:19:00,
2013-05-25 12:24:00,73.4,72.1,29.09,North,-999,-999.0,-999.0,96,0.00,,,1.80,WSDL version 420,2013-05-25 17:24:00,
2013-05-25 12:29:00,73.7,72.3,29.09,North,-999,-999.0,-999.0,96,0.00,,,1.80,WSDL version 420,2013-05-25 17:29:00,
2013-05-25 12:34:00,73.9,72.5,29.09,North,-999,-999.0,-999.0,96,0.00,,,1.80,WSDL version 420,2013-05-25 17:34:00,
2013-05-25 12:39:00,74.1,72.8,29.09,North,-999,-999.0,-999.0,96,0.00,,,1.80,WSDL version 420,2013-05-25 17:39:00,
2013-05-25 12:44:00,74.2,72.9,29.09,North,-999,-999.0,-999.0,96,0.00,,,1.80,WSDL version 420,2013-05-25 17:44:00,
2013-05-25 12:49:00,74.6,73.2,29.09,North,-999,-999.0,-999.0,96,0.00,,,1.80,WSDL version 420,2013-05-25 17:49:00,
2013-05-25 12:54:00,74.8,73.0,29.09,North,-999,-999.0,-999.0,93,0.00,,,1.80,WSDL version 420,2013-05-25 17:54:00,
2013-05-25 12:59:00,75.0,72.9,29.09,North,-999,-999.0,-999.0,93,0.00,,,1.80,WSDL version 420,2013-05-25 17:59:00,
2013-05-25 13:04:00,75.5,73.2,29.09,North,-999,-999.0,-999.0,92,0.00,,,1.80,WSDL version 420,2013-05-25 18:04:00,
2013-05-25 13:09:00,75.7,73.1,29.09,North,-999,-999.0,-999.0,92,0.00,,,1.80,WSDL version 420,2013-05-25 18:09:00,
2013-05-25 13:14:00,75.8,73.1,29.09,North,-999,-999.0,-999.0,91,0.00,,,1.80,WSDL version 420,2013-05-25 18:14:00,
2013-05-25 13:19:00,75.4,72.0,29.09,North,-999,-999.0,-999.0,89,0.00,,,1.80,WSDL version 420,2013-05-25 18:19:00,
2013-05-25 13:24:00,75.1,71.9,29.09,North,-999,-999.0,-999.0,90,0.00,,,1.80,WSDL version 420,2013-05-25 18:24:00,
2013-05-25 13:29:00,74.9,71.4,29.09,North,-999,-999.0,-999.0,89,0.00,,,1.80,WSDL version 420,2013-05-25 18:29:00,
2013-05-25 13:34:00,75.2,71.5,29.09,North,-999,-999.0,-999.0,88,0.00,,,1.80,WSDL version 420,2013-05-25 18:34:00,
2013-05-25 13:39:00,75.2,70.5,29.09,North,-999,-999.0,-999.0,86,0.00,,,1.80,WSDL version 420,2013-05-25 18:39:00,
2013-05-25 13:44:00,75.1,70.6,29.06,North,-999,-999.0,-999.0,86,0.00,,,1.80,WSDL version 420,2013-05-25 18:44:00,
2013-05-25 13:49:00,75.2,70.5,29.06,North,-999,-999.0,-999.0,84,0.00,,,1.80,WSDL version 420,2013-05-25 18:49:00,
2013-05-25 13:54:00,75.2,70.3,29.06,North,-999,-999.0,-999.0,86,0.00,,,1.80,WSDL version 420,2013-05-25 18:54:00,
2013-05-25 13:59:00,75.1,70.2,29.06,North,-999,-999.0,-999.0,84,0.00,,,1.80,WSDL version 420,2013-05-25 18:59:00,
2013-05-25 14:04:00,75.0,69.5,29.06,North,-999,-999.0,-999.0,82,0.00,,,1.80,WSDL version 420,2013-05-25 19:04:00,
2013-05-25 14:09:00,75.5,68.2,29.06,North,-999,-999.0,-999.0,77,0.00,,,1.80,WSDL version 420,2013-05-25 19:09:00,
2013-05-25 14:14:00,75.7,65.4,29.09,North,-999,-999.0,-999.0,70,0.00,,,1.80,WSDL version 420,2013-05-25 19:14:00,
2013-05-25 14:19:00,75.8,64.9,29.09,North,-999,-999.0,-999.0,69,0.00,,,1.80,WSDL version 420,2013-05-25 19:19:00,
2013-05-25 14:24:00,76.0,65.2,29.09,North,-999,-999.0,-999.0,69,0.00,,,1.80,WSDL version 420,2013-05-25 19:24:00,
2013-05-25 14:29:00,76.0,64.9,29.06,North,-999,-999.0,-999.0,68,0.00,,,1.80,WSDL version 420,2013-05-25 19:29:00,
2013-05-25 14:34:00,76.3,65.6,29.06,North,-999,-999.0,-999.0,69,0.00,,,1.80,WSDL version 420,2013-05-25 19:34:00,
2013-05-25 14:39:00,76.3,65.4,29.06,North,-999,-999.0,-999.0,69,0.00,,,1.80,WSDL version 420,2013-05-25 19:39:00,
2013-05-25 14:44:00,76.8,65.9,29.06,North,-999,-999.0,-999.0,69,0.00,,,1.80,WSDL version 420,2013-05-25 19:44:00,
2013-05-25 14:49:00,77.2,65.4,29.06,North,-999,-999.0,-999.0,67,0.00,,,1.80,WSDL version 420,2013-05-25 19:49:00,
2013-05-25 14:54:00,-999.0,-99.9,29.06,North,-999,-999.0,-999.0,-999,0.00,,,1.80,WSDL version 420,2013-05-25 19:54:00,
2013-05-25 14:59:00,-999.0,-99.9,29.06,North,-999,-999.0,-999.0,-999,0.00,,,1.80,WSDL version 420,2013-05-25 19:59:00,
2013-05-25 15:04:00,77.2,64.5,29.06,North,-999,-999.0,-999.0,65,0.00,,,1.80,WSDL version 420,2013-05-25 20:04:00,
2013-05-25 15:09:00,77.2,64.5,29.06,North,-999,-999.0,-999.0,65,0.00,,,1.80,WSDL version 420,2013-05-25 20:09:00,
2013-05-25 15:14:00,-999.0,-99.9,29.03,North,-999,-999.0,-999.0,-999,0.00,,,1.80,WSDL version 420,2013-05-25 20:14:00,
2013-05-25 15:19:00,-999.0,-99.9,29.03,North,-999,-999.0,-999.0,-999,0.00,,,1.80,WSDL version 420,2013-05-25 20:19:00,
2013-05-25 15:24:00,-999.0,-99.9,29.03,North,-999,-999.0,-999.0,-999,0.00,,,1.80,WSDL version 420,2013-05-25 20:24:00,
2013-05-25 15:29:00,-999.0,-99.9,29.03,North,-999,-999.0,-999.0,-999,0.00,,,1.80,WSDL version 420,2013-05-25 20:29:00,
2013-05-25 15:34:00,-999.0,-99.9,29.03,North,-999,-999.0,-999.0,-999,0.00,,,1.80,WSDL version 420,2013-05-25 20:34:00,
2013-05-25 15:39:00,78.8,65.2,29.03,North,-999,-999.0,-999.0,63,0.00,,,1.80,WSDL version 420,2013-05-25 20:39:00,
2013-05-25 15:44:00,78.8,65.2,29.03,North,-999,-999.0,-999.0,63,0.00,,,1.80,WSDL version 420,2013-05-25 20:44:00,
2013-05-25 15:49:00,-999.0,-99.9,29.03,North,-999,-999.0,-999.0,-999,0.00,,,1.80,WSDL version 420,2013-05-25 20:49:00,
2013-05-25 15:54:00,-999.0,-99.9,29.03,North,-999,-999.0,-999.0,-999,0.00,,,1.80,WSDL version 420,2013-05-25 20:54:00,
2013-05-25 15:59:00,-999.0,-99.9,29.03,North,-999,-999.0,-999.0,-999,0.00,,,1.80,WSDL version 420,2013-05-25 20:59:00,
2013-05-25 16:04:00,-999.0,-99.9,29.03,North,-999,-999.0,-999.0,-999,0.00,,,1.80,WSDL version 420,2013-05-25 21:04:00,
2013-05-25 16:09:00,-999.0,-99.9,29.03,North,-999,-999.0,-999.0,-999,0.00,,,1.80,WSDL version 420,2013-05-25 21:09:00,
2013-05-25 16:14:00,79.5,64.1,29.03,North,-999,-999.0,-999.0,59,0.00,,,1.80,WSDL version 420,2013-05-25 21:14:00,
2013-05-25 16:19:00,79.9,64.3,29.03,North,-999,-999.0,-999.0,59,0.00,,,1.80,WSDL version 420,2013-05-25 21:19:00,
2013-05-25 16:24:00,79.9,64.3,29.03,North,-999,-999.0,-999.0,59,0.00,,,1.80,WSDL version 420,2013-05-25 21:24:00,
2013-05-25 16:29:00,80.2,65.6,29.00,North,-999,-999.0,-999.0,61,0.00,,,1.80,WSDL version 420,2013-05-25 21:29:00,
2013-05-25 16:34:00,80.2,64.1,29.00,North,-999,-999.0,-999.0,58,0.00,,,1.80,WSDL version 420,2013-05-25 21:34:00,
2013-05-25 16:39:00,80.2,64.1,29.00,North,-999,-999.0,-999.0,58,0.00,,,1.80,WSDL version 420,2013-05-25 21:39:00,
2013-05-25 16:44:00,-999.0,-99.9,29.03,North,-999,-999.0,-999.0,-999,0.00,,,1.80,WSDL version 420,2013-05-25 21:44:00,
2013-05-25 16:49:00,79.7,63.6,29.03,North,-999,-999.0,-999.0,58,0.00,,,1.80,WSDL version 420,2013-05-25 21:49:00,
2013-05-25 16:54:00,79.7,62.9,29.03,North,-999,-999.0,-999.0,56,0.00,,,1.80,WSDL version 420,2013-05-25 21:54:00,
2013-05-25 16:59:00,79.5,62.9,29.00,North,-999,-999.0,-999.0,58,0.00,,,1.80,WSDL version 420,2013-05-25 21:59:00,
2013-05-25 17:04:00,79.4,63.5,29.00,North,-999,-999.0,-999.0,59,0.00,,,1.80,WSDL version 420,2013-05-25 22:04:00,
2013-05-25 17:09:00,79.4,63.9,29.00,North,-999,-999.0,-999.0,59,0.00,,,1.80,WSDL version 420,2013-05-25 22:09:00,
2013-05-25 17:14:00,79.4,63.5,29.00,North,-999,-999.0,-999.0,59,0.00,,,1.80,WSDL version 420,2013-05-25 22:14:00,
2013-05-25 17:19:00,79.2,62.9,29.00,North,-999,-999.0,-999.0,57,0.00,,,1.80,WSDL version 420,2013-05-25 22:19:00,
2013-05-25 17:24:00,79.2,63.4,29.00,North,-999,-999.0,-999.0,58,0.00,,,1.80,WSDL version 420,2013-05-25 22:24:00,
2013-05-25 17:29:00,79.1,63.1,29.00,North,-999,-999.0,-999.0,58,0.00,,,1.80,WSDL version 420,2013-05-25 22:29:00,
2013-05-25 17:34:00,78.9,63.0,29.00,North,-999,-999.0,-999.0,59,0.00,,,1.80,WSDL version 420,2013-05-25 22:34:00,
2013-05-25 17:39:00,78.5,63.4,29.00,North,-999,-999.0,-999.0,60,0.00,,,1.80,WSDL version 420,2013-05-25 22:39:00,
2013-05-25 17:44:00,78.1,63.1,29.00,North,-999,-999.0,-999.0,60,0.00,,,1.80,WSDL version 420,2013-05-25 22:44:00,
2013-05-25 17:49:00,77.9,63.0,29.00,North,-999,-999.0,-999.0,60,0.00,,,1.80,WSDL version 420,2013-05-25 22:49:00,
2013-05-25 17:54:00,77.7,63.1,29.00,North,-999,-999.0,-999.0,61,0.00,,,1.80,WSDL version 420,2013-05-25 22:54:00,
2013-05-25 17:59:00,77.2,63.2,29.03,North,-999,-999.0,-999.0,62,0.00,,,1.80,WSDL version 420,2013-05-25 22:59:00,
2013-05-25 18:04:00,77.0,63.1,29.03,North,-999,-999.0,-999.0,63,0.00,,,1.80,WSDL version 420,2013-05-25 23:04:00,
2013-05-25 18:09:00,76.7,63.1,29.03,North,-999,-999.0,-999.0,62,0.00,,,1.80,WSDL version 420,2013-05-25 23:09:00,
2013-05-25 18:14:00,76.5,62.9,29.00,North,-999,-999.0,-999.0,63,0.00,,,1.80,WSDL version 420,2013-05-25 23:14:00,
2013-05-25 18:19:00,76.3,63.0,29.00,North,-999,-999.0,-999.0,64,0.00,,,1.80,WSDL version 420,2013-05-25 23:19:00,
2013-05-25 18:24:00,76.2,62.9,29.00,North,-999,-999.0,-999.0,63,0.00,,,1.80,WSDL version 420,2013-05-25 23:24:00,
2013-05-25 18:29:00,76.1,62.6,29.00,North,-999,-999.0,-999.0,63,0.00,,,1.80,WSDL version 420,2013-05-25 23:29:00,
2013-05-25 18:34:00,76.0,62.7,29.00,North,-999,-999.0,-999.0,64,0.00,,,1.80,WSDL version 420,2013-05-25 23:34:00,
2013-05-25 18:39:00,75.7,62.7,29.00,North,-999,-999.0,-999.0,64,0.00,,,1.80,WSDL version 420,2013-05-25 23:39:00,
2013-05-25 18:44:00,75.6,62.9,29.00,North,-999,-999.0,-999.0,65,0.00,,,1.80,WSDL version 420,2013-05-25 23:44:00,
2013-05-25 18:49:00,75.6,63.0,29.00,North,-999,-999.0,-999.0,65,0.00,,,1.80,WSDL version 420,2013-05-25 23:49:00,
2013-05-25 18:54:00,75.7,63.2,29.00,North,-999,-999.0,-999.0,66,0.00,,,1.80,WSDL version 420,2013-05-25 23:54:00,
2013-05-25 18:59:00,75.9,63.4,29.00,North,-999,-999.0,-999.0,66,0.00,,,1.80,WSDL version 420,2013-05-25 23:59:00,
2013-05-25 19:04:00,76.0,63.8,29.00,North,-999,-999.0,-999.0,66,0.00,,,1.80,WSDL version 420,2013-05-26 00:04:00,
2013-05-25 19:09:00,76.1,64.1,29.00,North,-999,-999.0,-999.0,67,0.00,,,1.80,WSDL version 420,2013-05-26 00:09:00,
2013-05-25 19:14:00,76.1,64.3,29.00,North,-999,-999.0,-999.0,67,0.00,,,1.80,WSDL version 420,2013-05-26 00:14:00,
2013-05-25 19:19:00,75.9,64.2,29.00,North,-999,-999.0,-999.0,67,0.00,,,1.80,WSDL version 420,2013-05-26 00:19:00,
2013-05-25 19:24:00,75.8,64.1,29.00,North,-999,-999.0,-999.0,67,0.00,,,1.80,WSDL version 420,2013-05-26 00:24:00,
2013-05-25 19:29:00,75.7,63.9,29.00,North,-999,-999.0,-999.0,67,0.00,,,1.80,WSDL version 420,2013-05-26 00:29:00,
2013-05-25 19:34:00,75.6,64.2,29.00,North,-999,-999.0,-999.0,68,0.00,,,1.80,WSDL version 420,2013-05-26 00:34:00,
2013-05-25 19:39:00,75.4,64.1,29.00,North,-999,-999.0,-999.0,68,0.00,,,1.80,WSDL version 420,2013-05-26 00:39:00,
2013-05-25 19:44:00,75.4,64.5,29.00,North,-999,-999.0,-999.0,69,0.00,,,1.80,WSDL version 420,2013-05-26 00:44:00,
2013-05-25 19:49:00,75.2,64.3,29.00,North,-999,-999.0,-999.0,69,0.00,,,1.80,WSDL version 420,2013-05-26 00:49:00,
2013-05-25 19:54:00,75.2,64.3,29.00,North,-999,-999.0,-999.0,69,0.00,,,1.80,WSDL version 420,2013-05-26 00:54:00,
2013-05-25 19:59:00,75.1,64.2,29.00,North,-999,-999.0,-999.0,69,0.00,,,1.80,WSDL version 420,2013-05-26 00:59:00,
2013-05-25 20:04:00,74.9,64.1,29.00,North,-999,-999.0,-999.0,69,0.00,,,1.80,WSDL version 420,2013-05-26 01:04:00,
2013-05-25 20:09:00,74.8,64.0,29.00,North,-999,-999.0,-999.0,69,0.00,,,1.80,WSDL version 420,2013-05-26 01:09:00,
2013-05-25 20:14:00,74.7,63.8,29.00,North,-999,-999.0,-999.0,69,0.00,,,1.80,WSDL version 420,2013-05-26 01:14:00,
2013-05-25 20:19:00,74.5,64.1,29.00,North,-999,-999.0,-999.0,70,0.00,,,1.80,WSDL version 420,2013-05-26 01:19:00,
2013-05-25 20:24:00,74.3,64.0,29.00,North,-999,-999.0,-999.0,71,0.00,,,1.80,WSDL version 420,2013-05-26 01:24:00,
2013-05-25 20:29:00,74.3,64.3,29.00,North,-999,-999.0,-999.0,72,0.00,,,1.80,WSDL version 420,2013-05-26 01:29:00,
2013-05-25 20:34:00,74.1,64.1,29.00,North,-999,-999.0,-999.0,71,0.00,,,1.80,WSDL version 420,2013-05-26 01:34:00,
2013-05-25 20:39:00,73.9,64.3,29.00,North,-999,-999.0,-999.0,72,0.00,,,1.80,WSDL version 420,2013-05-26 01:39:00,
2013-05-25 20:44:00,73.8,64.1,29.00,North,-999,-999.0,-999.0,72,0.00,,,1.80,WSDL version 420,2013-05-26 01:44:00,
2013-05-25 20:49:00,73.7,64.3,29.00,North,-999,-999.0,-999.0,73,0.00,,,1.80,WSDL version 420,2013-05-26 01:49:00,
2013-05-25 20:54:00,73.5,64.3,29.00,North,-999,-999.0,-999.0,74,0.00,,,1.80,WSDL version 420,2013-05-26 01:54:00,
2013-05-25 20:59:00,73.3,64.5,29.00,North,-999,-999.0,-999.0,74,0.00,,,1.80,WSDL version 420,2013-05-26 01:59:00,
2013-05-25 21:04:00,73.2,64.7,29.00,North,-999,-999.0,-999.0,76,0.00,,,1.80,WSDL version 420,2013-05-26 02:04:00,
2013-05-25 21:09:00,73.1,64.9,29.00,North,-999,-999.0,-999.0,76,0.00,,,1.80,WSDL version 420,2013-05-26 02:09:00,
2013-05-25 21:14:00,73.0,65.0,29.00,North,-999,-999.0,-999.0,76,0.00,,,1.80,WSDL version 420,2013-05-26 02:14:00,
2013-05-25 21:19:00,72.9,65.2,29.00,North,-999,-999.0,-999.0,77,0.00,,,1.80,WSDL version 420,2013-05-26 02:19:00,
2013-05-25 21:24:00,72.7,65.2,29.00,North,-999,-999.0,-999.0,78,0.00,,,1.80,WSDL version 420,2013-05-26 02:24:00,
2013-05-25 21:29:00,72.7,65.1,29.00,North,-999,-999.0,-999.0,77,0.00,,,1.80,WSDL version 420,2013-05-26 02:29:00,
2013-05-25 21:35:00,72.5,65.0,29.00,North,-999,-999.0,-999.0,78,0.00,,,1.80,WSDL version 420,2013-05-26 02:35:00,
2013-05-25 21:39:00,72.4,65.2,29.00,North,-999,-999.0,-999.0,79,0.00,,,1.80,WSDL version 420,2013-05-26 02:39:00,
2013-05-25 21:44:00,72.3,65.2,29.00,North,-999,-999.0,-999.0,79,0.00,,,1.80,WSDL version 420,2013-05-26 02:44:00,
2013-05-25 21:49:00,72.2,65.3,29.00,North,-999,-999.0,-999.0,79,0.00,,,1.80,WSDL version 420,2013-05-26 02:49:00,
2013-05-25 21:54:00,72.1,65.6,29.00,North,-999,-999.0,-999.0,80,0.00,,,1.80,WSDL version 420,2013-05-26 02:54:00,
2013-05-25 21:59:00,72.1,65.3,29.03,North,-999,-999.0,-999.0,79,0.00,,,1.80,WSDL version 420,2013-05-26 02:59:00,
2013-05-25 22:04:00,72.0,65.4,29.03,North,-999,-999.0,-999.0,79,0.00,,,1.80,WSDL version 420,2013-05-26 03:04:00,
2013-05-25 22:09:00,72.0,65.3,29.03,North,-999,-999.0,-999.0,80,0.00,,,1.80,WSDL version 420,2013-05-26 03:09:00,
2013-05-25 22:14:00,72.0,65.5,29.03,North,-999,-999.0,-999.0,80,0.00,,,1.80,WSDL version 420,2013-05-26 03:14:00,
2013-05-25 22:19:00,72.1,65.5,29.03,North,-999,-999.0,-999.0,80,0.00,,,1.80,WSDL version 420,2013-05-26 03:19:00,
2013-05-25 22:24:00,72.1,65.8,29.03,North,-999,-999.0,-999.0,81,0.00,,,1.80,WSDL version 420,2013-05-26 03:24:00,
2013-05-25 22:29:00,72.1,65.8,29.03,North,-999,-999.0,-999.0,80,0.00,,,1.80,WSDL version 420,2013-05-26 03:29:00,
2013-05-25 22:34:00,72.1,65.8,29.03,North,-999,-999.0,-999.0,81,0.00,,,1.80,WSDL version 420,2013-05-26 03:34:00,
2013-05-25 22:39:00,72.1,66.0,29.03,North,-999,-999.0,-999.0,81,0.00,,,1.80,WSDL version 420,2013-05-26 03:39:00,
2013-05-25 22:44:00,72.1,66.0,29.03,North,-999,-999.0,-999.0,81,0.00,,,1.80,WSDL version 420,2013-05-26 03:44:00,
2013-05-25 22:49:00,72.2,66.1,29.03,North,-999,-999.0,-999.0,81,0.00,,,1.80,WSDL version 420,2013-05-26 03:49:00,
2013-05-25 22:54:00,72.1,66.0,29.03,North,-999,-999.0,-999.0,81,0.00,,,1.80,WSDL version 420,2013-05-26 03:54:00,
2013-05-25 22:59:00,72.1,66.0,29.06,North,-999,-999.0,-999.0,81,0.00,,,1.80,WSDL version 420,2013-05-26 03:59:00,
2013-05-25 23:04:00,72.1,65.9,29.06,North,-999,-999.0,-999.0,81,0.00,,,1.80,WSDL version 420,2013-05-26 04:04:00,
2013-05-25 23:09:00,72.0,65.9,29.06,North,-999,-999.0,-999.0,81,0.00,,,1.80,WSDL version 420,2013-05-26 04:09:00,
2013-05-25 23:14:00,71.9,65.9,29.03,North,-999,-999.0,-999.0,82,0.00,,,1.80,WSDL version 420,2013-05-26 04:14:00,
2013-05-25 23:19:00,71.8,65.9,29.03,North,-999,-999.0,-999.0,82,0.00,,,1.80,WSDL version 420,2013-05-26 04:19:00,
2013-05-25 23:24:00,71.8,66.1,29.03,North,-999,-999.0,-999.0,82,0.00,,,1.80,WSDL version 420,2013-05-26 04:24:00,
2013-05-25 23:29:00,71.9,66.4,29.03,North,-999,-999.0,-999.0,83,0.00,,,1.80,WSDL version 420,2013-05-26 04:29:00,
2013-05-25 23:34:00,71.8,66.5,29.03,North,-999,-999.0,-999.0,83,0.00,,,1.80,WSDL version 420,2013-05-26 04:34:00,
2013-05-25 23:39:00,71.8,66.6,29.03,North,-999,-999.0,-999.0,83,0.00,,,1.80,WSDL version 420,2013-05-26 04:39:00,
2013-05-25 23:44:00,72.0,66.6,29.06,North,-999,-999.0,-999.0,83,0.00,,,1.80,WSDL version 420,2013-05-26 04:44:00,
2013-05-25 23:49:00,72.0,67.0,29.06,North,-999,-999.0,-999.0,84,0.00,,,1.80,WSDL version 420,2013-05-26 04:49:00,
2013-05-25 23:54:00,72.0,67.0,29.06,North,-999,-999.0,-999.0,84,0.00,,,1.80,WSDL version 420,2013-05-26 04:54:00,
2013-05-25 23:59:00,72.0,67.0,29.03,North,-999,-999.0,-999.0,84,0.00,,,1.80,WSDL version 420,2013-05-26 04:59:00,